EGAE/LDY METAR and TAF weather

Enter ICAO airport designator
Station Type Date Time Source
EGAE METAR 2019/12/13 20:20 UTC NOAA

EGAE 132020Z 24013KT 9999 FEW018 SCT048 05/03 Q0975


Station Type Date Time Source
EGAE Decoded METAR 2019/12/13 20:20 UTC NOAA

Eglinton / Londonderr, United Kingdom (EGAE) 55-03N 007-09W
Dec 13, 2019 - 03:20 PM EST / 2019.12.13 2020 UTC
Wind: from the WSW (240 degrees) at 15 MPH (13 KT):0
Visibility: greater than 7 mile(s):0
Sky conditions: partly cloudy
Temperature: 41 F (5 C)
Dew Point: 37 F (3 C)
Relative Humidity: 86%
Pressure (altimeter): 28.79 in. Hg (0975 hPa)
ob: EGAE 132020Z 24013KT 9999 FEW018 SCT048 05/03 Q0975
cycle: 20

Station Type Date Time Source
EGAE TAF UTC NOAA

Error!

Example: see airport list